Winnemucca, NV

2:57 PM PDT on August 22, 2014 (GMT -0700)
Winnemucca Municipal | Change Station
CLOSE
Current Station
Airport
Location: Winnemucca,
Elevation: 4311 ft
Nearby Weather Stations
Active Advisory: Special Statement

Elev 4311 ft 40.90 °N, 117.81 °W | Updated 1 hour ago

Partly Cloudy
Partly Cloudy
78 °F
Feels Like 78 °F
N
9
Wind Variable Wind from West
Gusts 22 mph

Today
High -- | Low -- °F
--% Chance of Precip.
Yesterday
High -- | Low -- °F
Precip. -- in
6:07 AM 7:39 PM
Waning Crescent, 6% visible
Pressure 29.79 in
Visibility 10.0 miles
Clouds Few 12000 ft
Dew Point 36 °F
Humidity 22%
Rainfall 0.00 in
Snow Depth Not available.
UV 9 out of 12
Pollen 8.40 out of 12
Air Quality Not available.
Flu Activity Not available.
METAR KWMC 222056Z AUTO 28008G19KT 10SM FEW120 26/02 A2992 RMK AO2 LTG DSNT N AND NW SLP086 T02560022 58020

More Conditions Fewer Conditions

Pressure 29.79 in
Visibility 10.0 miles
Clouds Few 12000 ft
Dew Point 36 °F
Humidity 22%
Rainfall 0.00 in
Snow Depth Not available.
UV 9 out of 12
Pollen 8.40 out of 12
Air Quality Not available.
Flu Activity Not available.
METAR KWMC 222056Z AUTO 28008G19KT 10SM FEW120 26/02 A2992 RMK AO2 LTG DSNT N AND NW SLP086 T02560022 58020

More Conditions Fewer Conditions

10-Day Weather Forecast

Almanac

Astronomy

Aug. 22, 2014 Rise Set
Actual Time 6:07 AM PDT 7:39 PM PDT
Civil Twilight 5:38 AM PDT 8:08 PM PDT
Nautical Twilight 5:03 AM PDT 8:43 PM PDT
Astronomical Twilight 4:26 AM PDT 9:20 PM PDT
Moon 3:33 AM PDT 5:51 PM PDT
Length of Visible Light 14h 29m
Length of Day
13h 31m
Tomorrow will be 2m 32s shorter.
Waning Crescent, 6% of the Moon is Illuminated
Today
Waning Crescent
Aug 25
New
Sep 2
First Quarter
Sep 8
Full
Sep 15
Last Quarter

Today's Extremes

State Highs State Lows

Community

WunderPhotos

Upload Photos

1,746,260 photos uploaded!

Nearby

Snow Depth

Station Depth Elevation
Lamance Creek 1 in 6000 ft
Granite Peak 0 in 7800 ft
Buckskin Lower 2 in 6700 ft
Taylor Canyon 1 in 6200 ft
Jacks Peak 3 in 8420 ft

Earthquake Activity

City Distance Mag. Time & Date
No recent earthquake activity has been reported nearby.
Minimum magnitude displayed is 2.5.

Coastal Water Temperatures

Place Temperature
No Stations Reporting

Nearby Weather Stations